Cobija, Bolivia
Current Conditions -  °F | °C
As of 1:00 AM on Thursday 23 Oct 2014 (Local Time) from SBRB Reporting Station
Clear Clear  
Wind Chill: 75°   Ceiling: Unl
Heat Index: 75°   Visibility: 6mi
Dew Point: 70°   Wind: 2mph
Humidity: 83%   Direction: 290°WNW
Pressure: 29.85"   Gusts: NA
Location:  11.02°S, 68.77°W
Report Text: SBRB 230500Z 29002KT CAVOK 24/21 Q1011
Loading
Personal Weather Stations






























Interactive Weather Map
Tropical Storm Tracking
New forecast layout! Learn more

10-Day Weather Forecast

Advertisements
Track Severe Weather on mobile